Time;durP1;ratioP1;P1;durP2;ratioP2;P2;SDS_P1;SDS_P2;PMS_P1;PMS_P2;Temp;Humidity;BMP_temperature;BMP_pressure;BME280_temperature;BME280_humidity;BME280_pressure;Samples;Min_cycle;Max_cycle;Signal;HPM_P1;HPM_P2
2022/08/03 00:00:43;;;;;;;;;;;;;;;21.69;49.78;98913.56;2619499;54;19978;-65
2022/08/03 00:03:15;;;;;;;;;;;;;;;21.69;49.91;98916.25;2618776;54;19950;-65
2022/08/03 00:05:45;;;;;;;;;;;;;;;21.69;49.78;98915.44;2619401;54;20034;-66
2022/08/03 00:08:33;;;;;;;;;;;;;;;21.67;49.67;98915.69;2619422;54;20035;-66
2022/08/03 00:11:08;;;;;;;;;;;;;;;21.60;50.06;98915.13;2619389;54;19938;-65
2022/08/03 00:13:38;;;;;;;;;;;;;;;21.49;49.90;98922.31;2619342;54;19990;-65
2022/08/03 00:16:07;;;;;;;;;;;;;;;21.47;50.00;98923.66;2619414;54;19946;-66
2022/08/03 00:18:39;;;;;;;;;;;;;;;21.41;50.19;98920.13;2619442;54;19966;-68
2022/08/03 00:21:09;;;;;;;;;;;;;;;21.37;50.62;98912.84;2619421;54;19954;-66
2022/08/03 00:23:38;;;;;;;;;;;;;;;21.31;51.09;98905.78;2619399;54;19939;-65
2022/08/03 00:26:20;;;;;;;;;;;;;;;21.37;50.95;98912.84;2618791;54;19978;-66
2022/08/03 00:28:49;;;;;;;;;;;;;;;21.37;50.91;98904.78;2619190;31;20441;-67
2022/08/03 00:31:19;;;;;;;;;;;;;;;21.32;50.65;98907.41;2618705;54;19947;-65
2022/08/03 00:34:11;;;;;;;;;;;;;;;21.16;50.78;98910.00;2618235;54;19943;-65
2022/08/03 00:36:40;;;;;;;;;;;;;;;21.09;51.34;98904.03;2617494;47;19939;-65
2022/08/03 00:39:10;;;;;;;;;;;;;;;21.11;51.56;98898.41;2619525;39;20357;-66
2022/08/03 00:41:39;;;;;;;;;;;;;;;21.12;50.94;98905.41;2618653;54;19950;-67
2022/08/03 00:44:09;;;;;;;;;;;;;;;21.07;51.18;98903.50;2618753;54;19938;-66
2022/08/03 00:46:38;;;;;;;;;;;;;;;21.03;51.08;98907.75;2618515;54;19951;-65
2022/08/03 00:49:07;;;;;;;;;;;;;;;20.95;51.88;98906.38;2619648;54;20521;-67
2022/08/03 00:51:40;;;;;;;;;;;;;;;20.89;52.14;98899.31;2619590;54;20533;-64
2022/08/03 00:54:09;;;;;;;;;;;;;;;20.89;51.91;98899.31;2621366;54;19939;-64
2022/08/03 00:56:39;;;;;;;;;;;;;;;20.92;52.00;98898.81;2620939;54;19946;-65
2022/08/03 00:59:28;;;;;;;;;;;;;;;20.93;51.89;98894.25;2619386;54;19939;-64
2022/08/03 01:01:58;;;;;;;;;;;;;;;20.88;51.58;98892.31;2618842;47;19947;-65
2022/08/03 01:04:27;;;;;;;;;;;;;;;20.85;51.71;98900.09;2618480;47;19946;-64
2022/08/03 01:07:05;;;;;;;;;;;;;;;20.78;51.99;98887.69;2619052;54;19946;-65
2022/08/03 01:09:42;;;;;;;;;;;;;;;20.75;52.05;98896.25;2623421;54;20036;-65
2022/08/03 01:12:16;;;;;;;;;;;;;;;20.63;52.65;98892.13;2623919;54;19969;-65
2022/08/03 01:14:47;;;;;;;;;;;;;;;20.60;52.68;98892.63;2623927;54;19986;-65
2022/08/03 01:17:21;;;;;;;;;;;;;;;20.59;52.96;98891.03;2622875;54;19953;-67
2022/08/03 01:19:55;;;;;;;;;;;;;;;20.64;52.92;98891.88;2623324;54;19938;-65
2022/08/03 01:22:40;;;;;;;;;;;;;;;20.61;52.88;98892.38;2623565;54;19951;-65
2022/08/03 01:25:15;;;;;;;;;;;;;;;20.64;52.87;98891.06;2623233;54;19954;-66
2022/08/03 01:27:53;;;;;;;;;;;;;;;20.61;52.79;98889.69;2623454;54;19955;-66
2022/08/03 01:30:26;;;;;;;;;;;;;;;20.60;53.06;98887.28;2623226;54;19975;-66
2022/08/03 01:32:57;;;;;;;;;;;;;;;20.52;53.05;98880.47;2621916;54;19946;-66
2022/08/03 01:35:33;;;;;;;;;;;;;;;20.46;52.88;98887.66;2620439;54;19990;-67
2022/08/03 01:38:08;;;;;;;;;;;;;;;20.37;53.47;98877.63;2620010;47;19942;-66
2022/08/03 01:40:39;;;;;;;;;;;;;;;20.36;53.59;98876.00;2622255;54;19947;-66
2022/08/03 01:43:10;;;;;;;;;;;;;;;20.36;53.54;98876.00;2622340;54;19939;-65
2022/08/03 01:45:42;;;;;;;;;;;;;;;20.40;53.65;98877.13;2621370;47;19990;-65
2022/08/03 01:48:13;;;;;;;;;;;;;;;20.40;53.64;98879.81;2622309;39;20445;-66
2022/08/03 01:50:43;;;;;;;;;;;;;;;20.39;53.02;98879.00;2622350;54;19945;-65
2022/08/03 01:53:15;;;;;;;;;;;;;;;20.38;53.49;98881.94;2620844;54;19943;-65
2022/08/03 01:55:45;;;;;;;;;;;;;;;20.36;53.48;98876.00;2619737;54;19991;-66
2022/08/03 01:58:16;;;;;;;;;;;;;;;20.35;53.49;98877.09;2618900;47;19946;-66
2022/08/03 02:00:50;;;;;;;;;;;;;;;20.18;53.84;98883.38;2619768;54;19966;-65
2022/08/03 02:03:22;;;;;;;;;;;;;;;20.13;54.19;98875.28;2619326;54;19958;-65
2022/08/03 02:05:52;;;;;;;;;;;;;;;20.24;54.22;98874.28;2619727;54;19946;-65
2022/08/03 02:08:42;;;;;;;;;;;;;;;20.34;54.09;98876.28;2619572;54;19939;-65
2022/08/03 02:11:11;;;;;;;;;;;;;;;20.44;53.72;98872.88;2619448;54;19946;-65
2022/08/03 02:13:41;;;;;;;;;;;;;;;20.47;53.85;98873.16;2621087;54;19955;-66
2022/08/03 02:16:13;;;;;;;;;;;;;;;20.50;53.72;98875.38;2621416;54;19954;-66
2022/08/03 02:18:43;;;;;;;;;;;;;;;20.49;53.73;98867.56;2622403;46;19966;-67
2022/08/03 02:21:16;;;;;;;;;;;;;;;20.44;53.17;98875.56;2625003;54;19962;-66
2022/08/03 02:24:08;;;;;;;;;;;;;;;20.15;54.28;98870.44;2624559;47;19999;-66
2022/08/03 02:26:39;;;;;;;;;;;;;;;20.10;54.75;98878.44;2624055;54;19952;-66
2022/08/03 02:29:12;;;;;;;;;;;;;;;20.11;54.57;98876.56;2623117;54;19939;-66
2022/08/03 02:31:45;;;;;;;;;;;;;;;20.04;54.48;98876.75;2621725;54;19954;-66
2022/08/03 02:34:16;;;;;;;;;;;;;;;20.07;54.88;98870.91;2622173;54;19946;-66
2022/08/03 02:36:50;;;;;;;;;;;;;;;20.11;54.60;98871.22;2622064;54;19946;-66
2022/08/03 02:39:22;;;;;;;;;;;;;;;20.05;54.36;98870.34;2622550;54;19939;-66
2022/08/03 02:41:54;;;;;;;;;;;;;;;19.98;54.92;98869.75;2621166;54;19950;-66
2022/08/03 02:44:26;;;;;;;;;;;;;;;19.95;54.58;98862.19;2622039;54;19946;-67
2022/08/03 02:47:09;;;;;;;;;;;;;;;19.78;55.18;98862.28;2622070;54;19946;-68
2022/08/03 02:49:39;;;;;;;;;;;;;;;19.72;55.24;98861.41;2622142;54;19950;-67
2022/08/03 02:52:20;;;;;;;;;;;;;;;19.74;55.55;98861.97;2621478;47;20497;-66
2022/08/03 02:54:52;;;;;;;;;;;;;;;19.62;55.46;98858.59;2623275;54;19954;-68
2022/08/03 02:57:23;;;;;;;;;;;;;;;19.52;55.83;98863.81;2622494;54;19947;-67
2022/08/03 02:59:53;;;;;;;;;;;;;;;19.49;56.10;98864.31;2623465;54;19946;-68
2022/08/03 03:02:26;;;;;;;;;;;;;;;19.49;55.93;98867.00;2623411;54;19953;-67
2022/08/03 03:04:57;;;;;;;;;;;;;;;19.50;56.42;98858.69;2622501;47;19946;-67
2022/08/03 03:07:46;;;;;;;;;;;;;;;19.57;56.39;98863.06;2624068;39;20378;-66
2022/08/03 03:10:22;;;;;;;;;;;;;;;19.58;56.15;98859.31;2623404;54;19943;-67
2022/08/03 03:12:52;;;;;;;;;;;;;;;19.54;56.44;98857.13;2622759;54;20407;-68
2022/08/03 03:15:22;;;;;;;;;;;;;;;19.54;56.03;98859.81;2623171;54;20175;-66
2022/08/03 03:17:54;;;;;;;;;;;;;;;19.48;56.38;98863.50;2624174;54;19939;-68
2022/08/03 03:20:24;;;;;;;;;;;;;;;19.35;56.18;98865.72;2623963;47;19946;-67
2022/08/03 03:22:59;;;;;;;;;;;;;;;19.27;56.75;98857.06;2624963;54;19939;-66
2022/08/03 03:25:30;;;;;;;;;;;;;;;19.30;56.67;98863.78;2623328;54;19954;-67
2022/08/03 03:27:59;;;;;;;;;;;;;;;19.21;56.88;98862.59;2622527;54;19947;-67
2022/08/03 03:30:30;;;;;;;;;;;;;;;19.14;56.79;98861.94;2624127;54;19946;-68
2022/08/03 03:33:02;;;;;;;;;;;;;;;19.14;57.32;98859.28;2624730;39;20354;-66
2022/08/03 03:35:32;;;;;;;;;;;;;;;19.10;57.32;98863.50;2623851;39;20334;-66
2022/08/03 03:38:07;;;;;;;;;;;;;;;19.01;57.66;98863.91;2623829;31;20474;-66
2022/08/03 03:40:37;;;;;;;;;;;;;;;19.02;57.38;98864.72;2621995;39;20390;-66
2022/08/03 03:43:09;;;;;;;;;;;;;;;19.02;57.34;98870.91;2622177;54;19939;-66
2022/08/03 03:45:38;;;;;;;;;;;;;;;19.07;57.54;98864.81;2622489;54;19945;-66
2022/08/03 03:48:11;;;;;;;;;;;;;;;19.08;57.66;98871.00;2621982;54;19947;-66
2022/08/03 03:50:40;;;;;;;;;;;;;;;19.04;57.95;98871.47;2622883;54;20041;-66
2022/08/03 03:53:10;;;;;;;;;;;;;;;19.11;57.99;98871.31;2621859;47;19953;-66
2022/08/03 03:55:40;;;;;;;;;;;;;;;19.08;57.72;98877.16;2622206;54;19946;-66
2022/08/03 03:58:29;;;;;;;;;;;;;;;19.11;57.87;98871.31;2622323;54;19957;-66
2022/08/03 04:03:42;;;;;;;;;;;;;;;19.11;57.54;98865.94;2617992;54;20054;-65
2022/08/03 04:11:38;;;;;;;;;;;;;;;18.87;57.91;98873.38;2619883;54;19947;-66
2022/08/03 04:14:09;;;;;;;;;;;;;;;18.82;58.16;98875.97;2620694;39;20275;-67
2022/08/03 04:16:40;;;;;;;;;;;;;;;18.93;58.29;98871.56;2617992;54;19997;-66
2022/08/03 04:19:17;;;;;;;;;;;;;;;19.02;57.90;98872.75;2621653;54;19939;-67
2022/08/03 04:21:53;;;;;;;;;;;;;;;19.09;57.95;98869.94;2623791;54;19939;-68
2022/08/03 04:24:28;;;;;;;;;;;;;;;18.99;57.58;98866.03;2623443;54;19938;-67
2022/08/03 04:26:58;;;;;;;;;;;;;;;18.92;58.21;98869.94;2623828;54;19939;-67
2022/08/03 04:29:28;;;;;;;;;;;;;;;18.93;58.39;98874.25;2619355;54;20488;-67
2022/08/03 04:32:00;;;;;;;;;;;;;;;19.00;57.95;98872.22;2618508;54;19989;-67
2022/08/03 04:34:34;;;;;;;;;;;;;;;19.11;58.22;98870.50;2617945;54;19954;-68
2022/08/03 04:37:05;;;;;;;;;;;;;;;19.17;57.65;98880.22;2617162;54;19946;-69
2022/08/03 04:39:36;;;;;;;;;;;;;;;19.18;57.64;98877.28;2618050;54;19973;-67
2022/08/03 04:42:08;;;;;;;;;;;;;;;19.11;57.50;98883.91;2617928;54;19939;-67
2022/08/03 04:44:39;;;;;;;;;;;;;;;19.15;57.79;98882.34;2618080;54;19946;-68
2022/08/03 04:47:08;;;;;;;;;;;;;;;19.20;57.83;98879.75;2617091;54;19946;-68
2022/08/03 04:49:41;;;;;;;;;;;;;;;19.38;57.66;98884.78;2617230;47;19939;-67
2022/08/03 04:52:11;;;;;;;;;;;;;;;19.39;56.95;98885.59;2617635;47;19961;-68
2022/08/03 04:54:41;;;;;;;;;;;;;;;19.40;57.47;98884.56;2618553;39;20318;-67
2022/08/03 04:57:11;;;;;;;;;;;;;;;19.48;57.06;98889.50;2617674;54;19939;-68
2022/08/03 04:59:53;;;;;;;;;;;;;;;19.51;57.42;98889.81;2617744;54;19946;-68
2022/08/03 05:02:31;;;;;;;;;;;;;;;19.60;56.58;98890.19;2617155;54;20437;-67
2022/08/03 05:05:03;;;;;;;;;;;;;;;19.64;56.67;98893.22;2617097;54;19989;-68
2022/08/03 05:07:32;;;;;;;;;;;;;;;19.70;56.68;98895.69;2617580;54;19979;-68
2022/08/03 05:10:05;;;;;;;;;;;;;;;19.75;56.22;98893.06;2617285;54;19951;-67
2022/08/03 05:12:43;;;;;;;;;;;;;;;19.82;56.58;98894.78;2618646;39;20652;-67
2022/08/03 05:15:13;;;;;;;;;;;;;;;19.88;56.10;98894.59;2618802;54;19946;-67
2022/08/03 05:17:42;;;;;;;;;;;;;;;19.89;56.00;98898.06;2618459;54;20442;-67
2022/08/03 05:20:14;;;;;;;;;;;;;;;19.82;55.69;98894.78;2618563;54;19998;-67
2022/08/03 05:22:47;;;;;;;;;;;;;;;19.73;56.33;98891.72;2617942;47;19950;-67
2022/08/03 05:25:16;;;;;;;;;;;;;;;19.79;56.00;98893.38;2618580;54;19970;-67
2022/08/03 05:27:48;;;;;;;;;;;;;;;19.85;56.21;98892.41;2617728;54;20050;-68
2022/08/03 05:30:18;;;;;;;;;;;;;;;20.01;55.96;98896.88;2618521;54;19946;-67
2022/08/03 05:33:01;;;;;;;;;;;;;;;20.19;55.21;98898.41;2617797;47;19946;-67
2022/08/03 05:35:34;;;;;;;;;;;;;;;20.26;55.16;98900.91;2618530;54;20473;-67
2022/08/03 05:38:24;;;;;;;;;;;;;;;20.31;55.47;98889.41;2618511;54;19939;-66
2022/08/03 05:41:03;;;;;;;;;;;;;;;20.31;55.12;98895.56;2618609;54;19993;-67
2022/08/03 05:43:53;;;;;;;;;;;;;;;20.34;55.16;98896.94;2618815;54;20055;-67
2022/08/03 05:46:23;;;;;;;;;;;;;;;20.33;54.91;98895.31;2618499;54;19957;-68
2022/08/03 05:48:53;;;;;;;;;;;;;;;20.41;55.27;98905.59;2618704;54;20094;-67
2022/08/03 05:51:25;;;;;;;;;;;;;;;20.50;54.79;98904.91;2618629;54;19939;-67
2022/08/03 05:53:54;;;;;;;;;;;;;;;20.60;54.59;98898.81;2618726;54;19938;-67
2022/08/03 05:56:25;;;;;;;;;;;;;;;20.74;53.88;98904.59;2618456;54;19953;-67
2022/08/03 05:58:54;;;;;;;;;;;;;;;20.76;54.06;98902.44;2618505;54;19938;-66
2022/08/03 06:01:24;;;;;;;;;;;;;;;20.88;53.64;98900.41;2618611;54;19953;-66
2022/08/03 06:03:53;;;;;;;;;;;;;;;20.82;53.70;98898.75;2618251;54;19946;-67
2022/08/03 06:06:26;;;;;;;;;;;;;;;20.75;53.59;98907.00;2617879;47;19942;-66
2022/08/03 06:09:00;;;;;;;;;;;;;;;20.77;53.80;98893.31;2618002;46;20035;-68
2022/08/03 06:11:29;;;;;;;;;;;;;;;20.74;53.67;98897.34;2618693;54;19946;-69
2022/08/03 06:13:59;;;;;;;;;;;;;;;20.89;53.45;98893.13;2618416;54;19950;-69
2022/08/03 06:16:28;;;;;;;;;;;;;;;20.97;53.30;98892.66;2618264;54;19954;-67
2022/08/03 06:18:57;;;;;;;;;;;;;;;21.07;53.67;98894.63;2618376;54;20293;-69
2022/08/03 06:21:29;;;;;;;;;;;;;;;21.19;53.27;98895.25;2618618;54;20430;-67
2022/08/03 06:23:59;;;;;;;;;;;;;;;21.27;53.46;98884.00;2618099;54;20427;-68
2022/08/03 06:26:30;;;;;;;;;;;;;;;21.44;53.29;98891.91;2618756;54;20415;-69
2022/08/03 06:28:59;;;;;;;;;;;;;;;21.61;52.81;98889.84;2618367;54;19939;-68
2022/08/03 06:31:32;;;;;;;;;;;;;;;21.66;52.31;98881.78;2618234;54;19946;-67
2022/08/03 06:34:03;;;;;;;;;;;;;;;21.80;52.22;98892.88;2618167;54;20466;-68
2022/08/03 06:36:54;;;;;;;;;;;;;;;21.92;51.81;98892.63;2618186;54;20464;-68
2022/08/03 06:39:30;;;;;;;;;;;;;;;22.10;51.47;98881.41;2618952;54;19942;-68
2022/08/03 06:41:59;;;;;;;;;;;;;;;22.22;51.46;98894.66;2618125;54;20001;-68
2022/08/03 06:44:29;;;;;;;;;;;;;;;22.29;51.28;98888.97;2618626;54;19946;-68
2022/08/03 06:46:58;;;;;;;;;;;;;;;22.38;50.99;98885.50;2619414;54;20438;-68
2022/08/03 06:49:27;;;;;;;;;;;;;;;22.48;50.13;98887.41;2621218;54;20422;-68
2022/08/03 06:51:59;;;;;;;;;;;;;;;22.49;49.89;98881.75;2623347;39;20348;-68
2022/08/03 06:54:34;;;;;;;;;;;;;;;22.66;49.47;98883.38;2624572;54;19947;-69
2022/08/03 06:57:04;;;;;;;;;;;;;;;22.77;48.93;98879.59;2624158;54;19938;-68
2022/08/03 06:59:33;;;;;;;;;;;;;;;22.89;48.53;98877.44;2624951;54;19947;-68
2022/08/03 07:02:23;;;;;;;;;;;;;;;23.04;48.42;98879.34;2624549;54;19939;-67
2022/08/03 07:04:56;;;;;;;;;;;;;;;23.11;47.79;98887.97;2623526;47;20026;-67
2022/08/03 07:07:28;;;;;;;;;;;;;;;23.18;47.76;98891.16;2620504;47;19946;-68
2022/08/03 07:09:57;;;;;;;;;;;;;;;23.29;47.71;98891.94;2618114;54;19951;-67
2022/08/03 07:12:28;;;;;;;;;;;;;;;23.42;47.13;98893.25;2618285;54;19939;-68
2022/08/03 07:14:58;;;;;;;;;;;;;;;23.55;47.07;98884.59;2618285;54;20426;-66
2022/08/03 07:17:32;;;;;;;;;;;;;;;23.69;47.13;98885.66;2617945;54;19939;-68
2022/08/03 07:20:02;;;;;;;;;;;;;;;23.80;46.42;98891.00;2617829;47;19942;-67
2022/08/03 07:22:34;;;;;;;;;;;;;;;23.85;46.40;98894.50;2617845;47;20415;-67
2022/08/03 07:25:03;;;;;;;;;;;;;;;23.97;46.19;98892.28;2617586;47;20441;-67
2022/08/03 07:27:33;;;;;;;;;;;;;;;24.08;46.28;98890.31;2617491;54;19943;-68
2022/08/03 07:30:03;;;;;;;;;;;;;;;24.24;45.65;98888.31;2623550;54;20494;-69
2022/08/03 07:32:32;;;;;;;;;;;;;;;24.44;45.38;98887.41;2624839;54;19957;-68
2022/08/03 07:35:02;;;;;;;;;;;;;;;24.52;44.45;98886.81;2624302;54;19974;-68
2022/08/03 07:37:39;;;;;;;;;;;;;;;24.58;44.04;98891.09;2624511;54;19946;-67
2022/08/03 07:40:22;;;;;;;;;;;;;;;24.65;44.01;98885.38;2621710;54;19939;-67
2022/08/03 07:42:57;;;;;;;;;;;;;;;24.78;43.58;98883.91;2618417;54;20070;-67
2022/08/03 07:45:26;;;;;;;;;;;;;;;24.91;43.19;98884.06;2618303;54;20556;-67
2022/08/03 07:47:55;;;;;;;;;;;;;;;24.98;42.98;98882.91;2618175;54;20442;-68
2022/08/03 07:50:25;;;;;;;;;;;;;;;25.14;43.18;98882.50;2618093;54;20526;-67
2022/08/03 07:52:58;;;;;;;;;;;;;;;25.30;42.63;98885.88;2618837;39;20397;-69
2022/08/03 07:55:29;;;;;;;;;;;;;;;25.38;41.71;98885.22;2618600;54;19963;-68
2022/08/03 07:58:02;;;;;;;;;;;;;;;25.45;40.96;98880.28;2618454;54;19946;-67
2022/08/03 08:00:32;;;;;;;;;;;;;;;25.63;41.16;98876.00;2622629;54;19938;-67
2022/08/03 08:03:02;;;;;;;;;;;;;;;25.88;41.05;98876.81;2622828;47;19946;-68
2022/08/03 08:05:31;;;;;;;;;;;;;;;25.92;40.49;98872.41;2623205;54;20469;-68
2022/08/03 08:08:03;;;;;;;;;;;;;;;25.99;40.58;98878.28;2622589;54;19939;-67
2022/08/03 08:10:33;;;;;;;;;;;;;;;26.14;40.46;98874.56;2623589;54;19939;-68
2022/08/03 08:13:03;;;;;;;;;;;;;;;26.35;39.72;98877.78;2620105;54;19939;-68
2022/08/03 08:15:33;;;;;;;;;;;;;;;26.56;38.69;98870.97;2619054;54;19969;-67
2022/08/03 08:18:02;;;;;;;;;;;;;;;26.78;38.31;98874.94;2618863;39;20361;-67
2022/08/03 08:20:33;;;;;;;;;;;;;;;26.86;38.24;98872.38;2618350;54;20454;-68
2022/08/03 08:23:10;;;;;;;;;;;;;;;26.84;37.98;98862.91;2618757;39;20346;-67
2022/08/03 08:25:59;;;;;;;;;;;;;;;26.94;38.03;98857.31;2618501;39;20456;-66
2022/08/03 08:28:28;;;;;;;;;;;;;;;27.07;38.00;98861.97;2618627;31;20422;-66
2022/08/03 08:31:02;;;;;;;;;;;;;;;27.31;37.79;98855.56;2617937;54;20442;-68
2022/08/03 08:33:33;;;;;;;;;;;;;;;27.52;36.52;98858.69;2617915;54;19946;-66
2022/08/03 08:36:22;;;;;;;;;;;;;;;27.71;35.59;98851.22;2617659;54;19977;-67
2022/08/03 08:38:54;;;;;;;;;;;;;;;27.83;34.65;98848.00;2617863;54;20034;-67
2022/08/03 08:41:24;;;;;;;;;;;;;;;28.01;33.90;98849.00;2618799;31;20478;-66
2022/08/03 08:44:00;;;;;;;;;;;;;;;28.13;33.42;98850.06;2617440;54;19954;-67
2022/08/03 08:46:31;;;;;;;;;;;;;;;28.18;33.81;98846.41;2618016;54;19938;-66
2022/08/03 08:49:01;;;;;;;;;;;;;;;28.32;33.29;98846.34;2618679;54;20459;-68
2022/08/03 08:51:36;;;;;;;;;;;;;;;28.36;33.76;98845.44;2618733;54;20030;-67
2022/08/03 08:54:28;;;;;;;;;;;;;;;28.48;33.42;98847.63;2618957;54;19962;-66
2022/08/03 08:56:58;;;;;;;;;;;;;;;28.62;32.71;98839.41;2618512;54;20030;-67
2022/08/03 08:59:28;;;;;;;;;;;;;;;28.53;32.72;98841.25;2618643;54;19947;-65
2022/08/03 09:02:17;;;;;;;;;;;;;;;28.59;32.70;98840.03;2618625;54;19958;-67
2022/08/03 09:04:47;;;;;;;;;;;;;;;28.58;32.58;98841.94;2618515;54;20462;-68
2022/08/03 09:07:17;;;;;;;;;;;;;;;28.57;32.82;98834.88;2618290;54;19946;-67
2022/08/03 09:09:51;;;;;;;;;;;;;;;28.69;32.83;98838.94;2618760;54;19950;-66
2022/08/03 09:12:41;;;;;;;;;;;;;;;28.89;32.13;98833.78;2618563;54;19939;-67
2022/08/03 09:15:22;;;;;;;;;;;;;;;29.01;31.76;98829.72;2618603;54;20001;-68
2022/08/03 09:17:52;;;;;;;;;;;;;;;29.13;31.25;98828.00;2618346;54;19997;-67
2022/08/03 09:20:22;;;;;;;;;;;;;;;29.17;31.25;98825.47;2618526;54;19946;-66
2022/08/03 09:22:59;;;;;;;;;;;;;;;29.22;30.77;98828.03;2618412;54;19998;-67
2022/08/03 09:25:32;;;;;;;;;;;;;;;29.36;30.63;98834.19;2618399;39;20354;-66
2022/08/03 09:28:06;;;;;;;;;;;;;;;29.52;30.51;98831.81;2618737;39;20254;-66
2022/08/03 09:30:36;;;;;;;;;;;;;;;29.53;30.27;98833.41;2618519;54;19946;-66
2022/08/03 09:33:06;;;;;;;;;;;;;;;29.50;30.43;98830.53;2618648;54;19950;-66
2022/08/03 09:35:42;;;;;;;;;;;;;;;29.46;30.53;98837.72;2618423;39;20365;-68
2022/08/03 09:38:27;;;;;;;;;;;;;;;29.61;30.69;98832.66;2618581;54;19939;-68
2022/08/03 09:40:59;;;;;;;;;;;;;;;29.85;29.82;98829.50;2619059;54;19947;-67
2022/08/03 09:43:29;;;;;;;;;;;;;;;29.91;29.25;98823.88;2619844;54;19938;-67
2022/08/03 09:46:08;;;;;;;;;;;;;;;29.77;29.40;98826.78;2619479;54;19946;-67
2022/08/03 09:48:37;;;;;;;;;;;;;;;29.70;29.72;98819.06;2619079;54;19950;-67
2022/08/03 09:51:07;;;;;;;;;;;;;;;29.85;30.14;98820.53;2620399;54;19953;-68
2022/08/03 09:54:00;;;;;;;;;;;;;;;30.14;29.25;98816.38;2620477;54;20030;-67
2022/08/03 09:56:42;;;;;;;;;;;;;;;30.21;28.74;98808.50;2620483;54;19978;-67
2022/08/03 09:59:11;;;;;;;;;;;;;;;30.05;28.58;98813.66;2620193;54;19959;-68
2022/08/03 10:01:44;;;;;;;;;;;;;;;30.16;28.83;98811.41;2620740;54;19957;-68
2022/08/03 10:04:15;;;;;;;;;;;;;;;30.25;28.13;98810.31;2620835;54;19938;-66
2022/08/03 10:06:45;;;;;;;;;;;;;;;30.19;27.98;98817.03;2620422;54;19977;-66
2022/08/03 10:09:15;;;;;;;;;;;;;;;30.12;28.71;98808.50;2620463;54;20005;-68
2022/08/03 10:11:48;;;;;;;;;;;;;;;30.14;28.29;98808.19;2620236;54;19997;-68
2022/08/03 10:14:21;;;;;;;;;;;;;;;30.19;28.37;98800.66;2620469;54;19954;-69
2022/08/03 10:16:51;;;;;;;;;;;;;;;30.30;28.68;98799.22;2620378;54;19946;-68
2022/08/03 16:16:41;;;;;;;;;;;;;;;36.50;19.75;98499.16;2618917;46;20093;-67
2022/08/03 16:19:10;;;;;;;;;;;;;;;36.58;19.94;98494.50;2618779;54;19951;-66
2022/08/03 16:21:39;;;;;;;;;;;;;;;36.74;19.91;98491.56;2619052;54;19939;-66
2022/08/03 16:24:17;;;;;;;;;;;;;;;36.61;19.78;98493.75;2618476;54;19939;-67
2022/08/03 16:26:56;;;;;;;;;;;;;;;36.47;19.53;98494.38;2618204;54;19947;-67
2022/08/03 16:29:28;;;;;;;;;;;;;;;36.34;19.83;98490.25;2619594;39;20327;-67
2022/08/03 16:32:05;;;;;;;;;;;;;;;36.48;19.95;98484.16;2618336;54;20438;-67
2022/08/03 16:34:38;;;;;;;;;;;;;;;36.59;19.76;98491.38;2618027;54;19939;-68
2022/08/03 16:37:08;;;;;;;;;;;;;;;36.63;19.78;98494.19;2617997;54;19946;-67
2022/08/03 16:39:57;;;;;;;;;;;;;;;36.62;19.55;98493.41;2618901;54;20472;-67
2022/08/03 16:42:27;;;;;;;;;;;;;;;36.68;19.29;98491.09;2618370;54;19946;-66
2022/08/03 16:44:56;;;;;;;;;;;;;;;36.73;19.84;98490.78;2618068;54;19946;-67
2022/08/03 16:47:28;;;;;;;;;;;;;;;36.87;19.23;98488.22;2620661;31;20440;-67
2022/08/03 16:49:58;;;;;;;;;;;;;;;37.03;19.55;98484.47;2621105;54;19943;-67
2022/08/03 16:52:28;;;;;;;;;;;;;;;37.13;18.93;98484.59;2622187;54;20703;-67
2022/08/03 16:54:58;;;;;;;;;;;;;;;37.25;18.88;98489.03;2622148;54;19946;-68
2022/08/03 16:57:27;;;;;;;;;;;;;;;37.32;18.93;98486.38;2618899;39;20335;-68
2022/08/03 17:00:17;;;;;;;;;;;;;;;37.45;18.81;98475.09;2618649;54;20038;-67
2022/08/03 17:03:09;;;;;;;;;;;;;;;37.62;18.51;98480.75;2618437;54;19942;-67
2022/08/03 17:05:49;;;;;;;;;;;;;;;37.76;18.84;98482.03;2618259;54;19950;-67
2022/08/03 17:08:19;;;;;;;;;;;;;;;37.92;18.65;98483.38;2618573;54;19938;-67
2022/08/03 17:10:55;;;;;;;;;;;;;;;38.10;18.15;98479.97;2619701;39;20378;-67
2022/08/03 17:13:25;;;;;;;;;;;;;;;38.22;18.24;98476.91;2619809;39;20319;-67
2022/08/03 17:16:10;;;;;;;;;;;;;;;38.35;17.90;98480.16;2618923;54;19946;-67
2022/08/03 17:18:48;;;;;;;;;;;;;;;38.46;18.14;98488.50;2618504;54;19946;-67
2022/08/03 17:21:18;;;;;;;;;;;;;;;38.49;17.87;98477.47;2618800;54;19995;-66
2022/08/03 17:23:53;;;;;;;;;;;;;;;38.50;17.71;98472.72;2618747;54;19953;-67
2022/08/03 17:26:24;;;;;;;;;;;;;;;38.67;17.56;98472.03;2618591;54;19958;-66
2022/08/03 17:29:03;;;;;;;;;;;;;;;38.75;17.69;98470.88;2623151;54;20016;-65
2022/08/03 17:31:42;;;;;;;;;;;;;;;38.63;17.44;98474.00;2623246;54;19950;-65
2022/08/03 17:34:21;;;;;;;;;;;;;;;38.70;17.68;98473.22;2618883;54;19951;-65
2022/08/03 17:36:55;;;;;;;;;;;;;;;38.79;17.49;98470.94;2618560;54;20441;-65
2022/08/03 17:39:34;;;;;;;;;;;;;;;38.99;17.53;98474.13;2618144;46;19943;-65
2022/08/03 17:42:24;;;;;;;;;;;;;;;38.81;17.56;98476.84;2618594;54;19961;-65
2022/08/03 17:45:00;;;;;;;;;;;;;;;38.41;17.66;98475.84;2618552;54;19939;-65
2022/08/03 17:47:35;;;;;;;;;;;;;;;38.31;18.10;98479.31;2618466;54;19969;-66
2022/08/03 17:50:14;;;;;;;;;;;;;;;38.27;18.02;98479.28;2618530;54;20070;-65
2022/08/03 17:52:54;;;;;;;;;;;;;;;38.36;18.58;98485.28;2618997;39;20345;-65
2022/08/03 17:55:26;;;;;;;;;;;;;;;38.39;18.57;98483.72;2618662;54;19946;-65
2022/08/03 17:58:21;;;;;;;;;;;;;;;38.27;18.13;98482.06;2618954;39;20365;-64
2022/08/03 18:04:03;;;;;;;;;;;;;;;37.85;18.47;98490.81;2618063;54;19946;-66
2022/08/03 18:06:44;;;;;;;;;;;;;;;37.26;19.26;98495.34;2618332;54;19953;-66
2022/08/03 18:09:26;;;;;;;;;;;;;;;36.56;19.33;98499.59;2618989;39;20373;-65
2022/08/03 18:12:20;;;;;;;;;;;;;;;35.91;20.12;98495.84;2618767;54;20074;-67
2022/08/03 18:14:54;;;;;;;;;;;;;;;35.45;20.85;98497.78;2618672;39;20338;-67
2022/08/03 18:17:31;;;;;;;;;;;;;;;35.03;21.29;98500.50;2618816;54;20054;-67
2022/08/03 18:20:21;;;;;;;;;;;;;;;34.63;21.65;98496.94;2618847;54;19953;-67
2022/08/03 18:23:05;;;;;;;;;;;;;;;34.42;21.67;98502.72;2618576;54;19949;-66
2022/08/03 18:25:37;;;;;;;;;;;;;;;34.18;22.26;98511.97;2618705;47;20430;-67
2022/08/03 18:28:19;;;;;;;;;;;;;;;33.98;22.22;98507.56;2618884;54;20059;-66
2022/08/03 18:30:52;;;;;;;;;;;;;;;33.88;22.42;98511.59;2619154;54;19939;-66
2022/08/03 18:33:42;;;;;;;;;;;;;;;33.75;22.81;98499.94;2618202;54;19965;-65
2022/08/03 18:36:36;;;;;;;;;;;;;;;33.62;22.77;98509.38;2618805;54;19947;-68
2022/08/03 18:39:11;;;;;;;;;;;;;;;33.53;22.75;98517.78;2618974;54;19947;-67
2022/08/03 18:41:40;;;;;;;;;;;;;;;33.45;23.09;98513.25;2619212;54;20568;-68
2022/08/03 18:44:15;;;;;;;;;;;;;;;33.34;23.33;98514.88;2619334;54;20057;-66
2022/08/03 18:47:09;;;;;;;;;;;;;;;33.20;23.54;98520.78;2619030;54;19947;-67
2022/08/03 18:49:49;;;;;;;;;;;;;;;33.07;23.92;98518.44;2619187;54;19946;-67
2022/08/03 18:52:19;;;;;;;;;;;;;;;32.97;24.03;98523.25;2619528;54;19958;-67
2022/08/03 18:54:57;;;;;;;;;;;;;;;32.89;24.36;98529.66;2618794;54;19946;-67
2022/08/03 18:57:51;;;;;;;;;;;;;;;32.78;24.08;98523.06;2619205;54;19938;-67
2022/08/03 19:00:21;;;;;;;;;;;;;;;32.63;24.60;98519.13;2619128;54;20055;-66
2022/08/03 19:03:11;;;;;;;;;;;;;;;32.58;24.78;98524.00;2619279;54;20026;-66
2022/08/03 19:05:55;;;;;;;;;;;;;;;32.38;25.23;98529.28;2618899;39;20357;-67
2022/08/03 19:08:38;;;;;;;;;;;;;;;32.33;25.56;98528.69;2618361;54;19981;-68
2022/08/03 19:11:33;;;;;;;;;;;;;;;32.21;25.65;98535.78;2618979;54;19950;-68
2022/08/03 19:14:28;;;;;;;;;;;;;;;32.00;26.12;98541.34;2619364;54;19938;-68
2022/08/03 19:17:05;;;;;;;;;;;;;;;31.73;26.95;98542.75;2619922;39;20327;-69
2022/08/03 19:19:37;;;;;;;;;;;;;;;31.59;26.67;98542.25;2619446;54;19946;-67
2022/08/03 19:22:13;;;;;;;;;;;;;;;31.53;26.57;98554.56;2619154;54;19939;-67
2022/08/03 19:24:47;;;;;;;;;;;;;;;31.48;26.44;98552.84;2619330;54;20457;-67
2022/08/03 19:27:21;;;;;;;;;;;;;;;31.39;26.79;98554.03;2619770;54;19938;-67
2022/08/03 19:29:57;;;;;;;;;;;;;;;31.37;26.86;98556.31;2620433;54;20018;-67
2022/08/03 19:32:33;;;;;;;;;;;;;;;31.27;26.94;98558.31;2620795;54;19953;-66